sensor_id;sensor_type;location;lat;lon;timestamp;P1;durP1;ratioP1;P2;durP2;ratioP2
10056;SDS011;5068;51.286;7.518;2024-01-25T00:01:15;17.25;;;4.80;;
10056;SDS011;5068;51.286;7.518;2024-01-25T00:02:50;16.17;;;3.40;;
10056;SDS011;5068;51.286;7.518;2024-01-25T00:04:23;13.68;;;4.00;;
10056;SDS011;5068;51.286;7.518;2024-01-25T00:05:57;14.25;;;3.45;;
10056;SDS011;5068;51.286;7.518;2024-01-25T00:07:29;16.50;;;4.07;;
10056;SDS011;5068;51.286;7.518;2024-01-25T00:09:03;16.42;;;4.25;;
10056;SDS011;5068;51.286;7.518;2024-01-25T00:10:38;20.92;;;4.80;;
10056;SDS011;5068;51.286;7.518;2024-01-25T00:12:11;15.63;;;4.25;;
10056;SDS011;5068;51.286;7.518;2024-01-25T00:13:44;14.20;;;3.95;;
10056;SDS011;5068;51.286;7.518;2024-01-25T00:15:17;12.13;;;3.50;;
10056;SDS011;5068;51.286;7.518;2024-01-25T00:16:49;15.20;;;3.80;;
10056;SDS011;5068;51.286;7.518;2024-01-25T00:18:24;11.25;;;3.40;;
10056;SDS011;5068;51.286;7.518;2024-01-25T00:19:56;16.00;;;3.88;;
10056;SDS011;5068;51.286;7.518;2024-01-25T00:21:30;20.52;;;4.05;;
10056;SDS011;5068;51.286;7.518;2024-01-25T00:23:02;14.25;;;3.53;;
10056;SDS011;5068;51.286;7.518;2024-01-25T00:24:36;21.67;;;4.53;;
10056;SDS011;5068;51.286;7.518;2024-01-25T00:26:09;13.55;;;3.92;;
10056;SDS011;5068;51.286;7.518;2024-01-25T00:27:43;14.65;;;4.03;;
10056;SDS011;5068;51.286;7.518;2024-01-25T00:29:16;14.40;;;3.75;;
10056;SDS011;5068;51.286;7.518;2024-01-25T00:30:49;12.27;;;3.55;;
10056;SDS011;5068;51.286;7.518;2024-01-25T00:32:22;15.63;;;4.25;;
10056;SDS011;5068;51.286;7.518;2024-01-25T00:33:57;18.55;;;3.92;;
10056;SDS011;5068;51.286;7.518;2024-01-25T00:35:31;17.88;;;4.15;;
10056;SDS011;5068;51.286;7.518;2024-01-25T00:37:05;18.10;;;3.88;;
10056;SDS011;5068;51.286;7.518;2024-01-25T00:38:39;19.23;;;4.00;;
10056;SDS011;5068;51.286;7.518;2024-01-25T00:40:13;18.15;;;4.13;;
10056;SDS011;5068;51.286;7.518;2024-01-25T00:41:47;18.55;;;3.97;;
10056;SDS011;5068;51.286;7.518;2024-01-25T00:43:25;17.70;;;4.40;;
10056;SDS011;5068;51.286;7.518;2024-01-25T00:44:59;11.43;;;3.45;;
10056;SDS011;5068;51.286;7.518;2024-01-25T00:46:33;17.90;;;4.32;;
10056;SDS011;5068;51.286;7.518;2024-01-25T00:48:07;18.25;;;4.10;;
10056;SDS011;5068;51.286;7.518;2024-01-25T00:49:43;14.68;;;3.65;;
10056;SDS011;5068;51.286;7.518;2024-01-25T00:51:20;14.32;;;3.75;;
10056;SDS011;5068;51.286;7.518;2024-01-25T00:52:55;12.00;;;3.47;;
10056;SDS011;5068;51.286;7.518;2024-01-25T00:54:28;13.45;;;3.63;;
10056;SDS011;5068;51.286;7.518;2024-01-25T00:56:02;16.88;;;4.35;;
10056;SDS011;5068;51.286;7.518;2024-01-25T00:57:35;11.68;;;3.55;;
10056;SDS011;5068;51.286;7.518;2024-01-25T00:59:09;15.57;;;3.80;;
10056;SDS011;5068;51.286;7.518;2024-01-25T01:00:43;17.65;;;4.75;;
10056;SDS011;5068;51.286;7.518;2024-01-25T01:02:16;14.63;;;4.18;;
10056;SDS011;5068;51.286;7.518;2024-01-25T01:03:53;16.00;;;4.25;;
10056;SDS011;5068;51.286;7.518;2024-01-25T01:05:32;16.33;;;4.32;;
10056;SDS011;5068;51.286;7.518;2024-01-25T01:07:07;15.32;;;3.78;;
10056;SDS011;5068;51.286;7.518;2024-01-25T01:08:41;15.25;;;4.15;;
10056;SDS011;5068;51.286;7.518;2024-01-25T01:10:15;12.48;;;4.05;;
10056;SDS011;5068;51.286;7.518;2024-01-25T01:11:47;12.60;;;3.78;;
10056;SDS011;5068;51.286;7.518;2024-01-25T01:13:21;13.90;;;4.05;;
10056;SDS011;5068;51.286;7.518;2024-01-25T01:14:54;18.27;;;3.92;;
10056;SDS011;5068;51.286;7.518;2024-01-25T01:16:27;16.13;;;4.15;;
10056;SDS011;5068;51.286;7.518;2024-01-25T01:18:02;16.75;;;4.88;;
10056;SDS011;5068;51.286;7.518;2024-01-25T01:19:36;15.70;;;4.03;;
10056;SDS011;5068;51.286;7.518;2024-01-25T01:21:10;14.05;;;3.72;;
10056;SDS011;5068;51.286;7.518;2024-01-25T01:22:43;16.92;;;4.10;;
10056;SDS011;5068;51.286;7.518;2024-01-25T01:24:16;12.27;;;4.10;;
10056;SDS011;5068;51.286;7.518;2024-01-25T01:25:49;14.77;;;4.15;;
10056;SDS011;5068;51.286;7.518;2024-01-25T01:27:22;15.23;;;3.92;;
10056;SDS011;5068;51.286;7.518;2024-01-25T01:28:55;15.10;;;4.53;;
10056;SDS011;5068;51.286;7.518;2024-01-25T01:30:27;17.75;;;4.32;;
10056;SDS011;5068;51.286;7.518;2024-01-25T01:32:00;13.95;;;3.75;;
10056;SDS011;5068;51.286;7.518;2024-01-25T01:33:34;17.65;;;4.05;;
10056;SDS011;5068;51.286;7.518;2024-01-25T01:35:07;17.13;;;4.38;;
10056;SDS011;5068;51.286;7.518;2024-01-25T01:36:41;13.75;;;3.97;;
10056;SDS011;5068;51.286;7.518;2024-01-25T01:38:15;13.98;;;4.15;;
10056;SDS011;5068;51.286;7.518;2024-01-25T01:39:47;17.77;;;4.53;;
10056;SDS011;5068;51.286;7.518;2024-01-25T01:41:22;13.40;;;3.80;;
10056;SDS011;5068;51.286;7.518;2024-01-25T01:42:58;11.88;;;4.20;;
10056;SDS011;5068;51.286;7.518;2024-01-25T01:44:32;12.32;;;3.65;;
10056;SDS011;5068;51.286;7.518;2024-01-25T01:46:06;13.68;;;4.35;;
10056;SDS011;5068;51.286;7.518;2024-01-25T01:47:45;14.82;;;4.10;;
10056;SDS011;5068;51.286;7.518;2024-01-25T01:49:17;8.30;;;2.75;;
10056;SDS011;5068;51.286;7.518;2024-01-25T01:50:51;12.77;;;4.40;;
10056;SDS011;5068;51.286;7.518;2024-01-25T01:52:25;16.73;;;4.00;;
10056;SDS011;5068;51.286;7.518;2024-01-25T01:53:59;14.25;;;4.28;;
10056;SDS011;5068;51.286;7.518;2024-01-25T01:55:34;17.33;;;4.47;;
10056;SDS011;5068;51.286;7.518;2024-01-25T01:57:07;14.68;;;3.97;;
10056;SDS011;5068;51.286;7.518;2024-01-25T01:58:40;17.75;;;4.43;;
10056;SDS011;5068;51.286;7.518;2024-01-25T02:00:14;13.50;;;5.38;;
10056;SDS011;5068;51.286;7.518;2024-01-25T02:01:49;14.07;;;3.88;;
10056;SDS011;5068;51.286;7.518;2024-01-25T02:03:21;12.10;;;4.68;;
10056;SDS011;5068;51.286;7.518;2024-01-25T02:04:54;13.40;;;4.05;;
10056;SDS011;5068;51.286;7.518;2024-01-25T02:06:27;9.95;;;3.63;;
10056;SDS011;5068;51.286;7.518;2024-01-25T02:08:02;17.55;;;3.75;;
10056;SDS011;5068;51.286;7.518;2024-01-25T02:09:36;14.48;;;3.83;;
10056;SDS011;5068;51.286;7.518;2024-01-25T02:11:10;13.95;;;4.57;;
10056;SDS011;5068;51.286;7.518;2024-01-25T02:12:44;16.52;;;3.30;;
10056;SDS011;5068;51.286;7.518;2024-01-25T02:14:16;15.18;;;4.32;;
10056;SDS011;5068;51.286;7.518;2024-01-25T02:15:50;16.83;;;4.05;;
10056;SDS011;5068;51.286;7.518;2024-01-25T02:17:22;18.42;;;4.55;;
10056;SDS011;5068;51.286;7.518;2024-01-25T02:18:55;14.27;;;4.13;;
10056;SDS011;5068;51.286;7.518;2024-01-25T02:20:29;14.68;;;4.13;;
10056;SDS011;5068;51.286;7.518;2024-01-25T02:22:04;12.68;;;3.92;;
10056;SDS011;5068;51.286;7.518;2024-01-25T02:23:39;16.02;;;3.72;;
10056;SDS011;5068;51.286;7.518;2024-01-25T02:25:12;14.90;;;3.80;;
10056;SDS011;5068;51.286;7.518;2024-01-25T02:26:46;10.70;;;3.92;;
10056;SDS011;5068;51.286;7.518;2024-01-25T02:28:18;11.95;;;3.58;;
10056;SDS011;5068;51.286;7.518;2024-01-25T02:29:51;15.00;;;4.13;;
10056;SDS011;5068;51.286;7.518;2024-01-25T02:31:24;13.93;;;3.88;;
10056;SDS011;5068;51.286;7.518;2024-01-25T02:32:57;15.38;;;4.65;;
10056;SDS011;5068;51.286;7.518;2024-01-25T02:34:30;14.40;;;3.67;;
10056;SDS011;5068;51.286;7.518;2024-01-25T02:36:03;15.23;;;3.65;;
10056;SDS011;5068;51.286;7.518;2024-01-25T02:37:37;14.90;;;3.45;;
10056;SDS011;5068;51.286;7.518;2024-01-25T02:39:11;11.13;;;3.25;;
10056;SDS011;5068;51.286;7.518;2024-01-25T02:40:44;16.67;;;4.30;;
10056;SDS011;5068;51.286;7.518;2024-01-25T02:42:16;11.27;;;3.50;;
10056;SDS011;5068;51.286;7.518;2024-01-25T02:43:50;15.73;;;4.00;;
10056;SDS011;5068;51.286;7.518;2024-01-25T02:45:22;13.50;;;3.20;;
10056;SDS011;5068;51.286;7.518;2024-01-25T02:46:55;13.85;;;3.20;;
10056;SDS011;5068;51.286;7.518;2024-01-25T02:48:27;12.15;;;3.33;;
10056;SDS011;5068;51.286;7.518;2024-01-25T02:50:00;11.70;;;3.22;;
10056;SDS011;5068;51.286;7.518;2024-01-25T02:51:33;13.50;;;4.22;;
10056;SDS011;5068;51.286;7.518;2024-01-25T02:53:06;18.13;;;4.03;;
10056;SDS011;5068;51.286;7.518;2024-01-25T02:54:39;14.88;;;3.63;;
10056;SDS011;5068;51.286;7.518;2024-01-25T02:56:13;16.83;;;4.30;;
10056;SDS011;5068;51.286;7.518;2024-01-25T02:57:45;13.95;;;3.50;;
10056;SDS011;5068;51.286;7.518;2024-01-25T02:59:19;13.90;;;3.92;;
10056;SDS011;5068;51.286;7.518;2024-01-25T03:00:51;10.77;;;3.50;;
10056;SDS011;5068;51.286;7.518;2024-01-25T03:02:24;13.27;;;3.35;;
10056;SDS011;5068;51.286;7.518;2024-01-25T03:03:57;15.15;;;3.80;;
10056;SDS011;5068;51.286;7.518;2024-01-25T03:05:30;10.95;;;3.05;;
10056;SDS011;5068;51.286;7.518;2024-01-25T03:07:03;13.07;;;4.38;;
10056;SDS011;5068;51.286;7.518;2024-01-25T03:08:36;10.63;;;3.53;;
10056;SDS011;5068;51.286;7.518;2024-01-25T03:10:11;10.73;;;3.40;;
10056;SDS011;5068;51.286;7.518;2024-01-25T03:11:43;16.35;;;4.03;;
10056;SDS011;5068;51.286;7.518;2024-01-25T03:13:16;12.57;;;3.33;;
10056;SDS011;5068;51.286;7.518;2024-01-25T03:14:50;15.13;;;4.28;;
10056;SDS011;5068;51.286;7.518;2024-01-25T03:16:22;14.20;;;3.95;;
10056;SDS011;5068;51.286;7.518;2024-01-25T03:17:56;13.38;;;3.95;;
10056;SDS011;5068;51.286;7.518;2024-01-25T03:19:29;17.13;;;3.78;;
10056;SDS011;5068;51.286;7.518;2024-01-25T03:21:01;12.50;;;3.08;;
10056;SDS011;5068;51.286;7.518;2024-01-25T03:22:35;11.98;;;3.72;;
10056;SDS011;5068;51.286;7.518;2024-01-25T03:24:08;13.02;;;3.28;;
10056;SDS011;5068;51.286;7.518;2024-01-25T03:25:41;14.60;;;4.05;;
10056;SDS011;5068;51.286;7.518;2024-01-25T03:27:15;12.25;;;4.03;;
10056;SDS011;5068;51.286;7.518;2024-01-25T03:28:47;13.15;;;3.45;;
10056;SDS011;5068;51.286;7.518;2024-01-25T03:30:20;13.52;;;3.70;;
10056;SDS011;5068;51.286;7.518;2024-01-25T03:31:53;15.48;;;3.78;;
10056;SDS011;5068;51.286;7.518;2024-01-25T03:33:26;16.50;;;3.88;;
10056;SDS011;5068;51.286;7.518;2024-01-25T03:34:59;16.10;;;3.70;;
10056;SDS011;5068;51.286;7.518;2024-01-25T03:36:32;12.10;;;2.97;;
10056;SDS011;5068;51.286;7.518;2024-01-25T03:38:07;12.80;;;3.72;;
10056;SDS011;5068;51.286;7.518;2024-01-25T03:39:39;18.10;;;4.22;;
10056;SDS011;5068;51.286;7.518;2024-01-25T03:41:14;11.43;;;3.22;;
10056;SDS011;5068;51.286;7.518;2024-01-25T03:42:47;12.25;;;3.10;;
10056;SDS011;5068;51.286;7.518;2024-01-25T03:44:40;12.98;;;3.10;;
10056;SDS011;5068;51.286;7.518;2024-01-25T03:46:14;12.10;;;3.50;;
10056;SDS011;5068;51.286;7.518;2024-01-25T03:47:46;11.45;;;3.10;;
10056;SDS011;5068;51.286;7.518;2024-01-25T03:49:21;18.33;;;4.30;;
10056;SDS011;5068;51.286;7.518;2024-01-25T03:50:55;14.57;;;3.78;;
10056;SDS011;5068;51.286;7.518;2024-01-25T03:52:28;14.13;;;3.40;;
10056;SDS011;5068;51.286;7.518;2024-01-25T03:54:01;11.55;;;2.92;;
10056;SDS011;5068;51.286;7.518;2024-01-25T03:55:35;10.93;;;3.38;;
10056;SDS011;5068;51.286;7.518;2024-01-25T03:57:09;8.93;;;3.10;;
10056;SDS011;5068;51.286;7.518;2024-01-25T03:58:42;11.52;;;3.28;;
10056;SDS011;5068;51.286;7.518;2024-01-25T04:00:15;10.32;;;3.70;;
10056;SDS011;5068;51.286;7.518;2024-01-25T04:01:49;14.95;;;4.20;;
10056;SDS011;5068;51.286;7.518;2024-01-25T04:03:21;10.98;;;3.63;;
10056;SDS011;5068;51.286;7.518;2024-01-25T04:04:54;13.10;;;3.75;;
10056;SDS011;5068;51.286;7.518;2024-01-25T04:06:27;15.07;;;4.00;;
10056;SDS011;5068;51.286;7.518;2024-01-25T04:08:00;11.93;;;3.38;;
10056;SDS011;5068;51.286;7.518;2024-01-25T04:09:32;11.70;;;2.90;;
10056;SDS011;5068;51.286;7.518;2024-01-25T04:11:05;11.77;;;2.75;;
10056;SDS011;5068;51.286;7.518;2024-01-25T04:12:40;18.90;;;3.65;;
10056;SDS011;5068;51.286;7.518;2024-01-25T04:14:14;12.95;;;2.72;;
10056;SDS011;5068;51.286;7.518;2024-01-25T04:15:47;13.30;;;3.33;;
10056;SDS011;5068;51.286;7.518;2024-01-25T04:17:20;11.60;;;3.40;;
10056;SDS011;5068;51.286;7.518;2024-01-25T04:18:52;14.32;;;3.45;;
10056;SDS011;5068;51.286;7.518;2024-01-25T04:20:26;16.75;;;3.17;;
10056;SDS011;5068;51.286;7.518;2024-01-25T04:21:59;9.88;;;2.90;;
10056;SDS011;5068;51.286;7.518;2024-01-25T04:23:32;12.55;;;3.05;;
10056;SDS011;5068;51.286;7.518;2024-01-25T04:25:06;12.85;;;3.45;;
10056;SDS011;5068;51.286;7.518;2024-01-25T04:26:39;9.40;;;3.05;;
10056;SDS011;5068;51.286;7.518;2024-01-25T04:28:14;12.65;;;2.63;;
10056;SDS011;5068;51.286;7.518;2024-01-25T04:29:46;15.20;;;3.08;;
10056;SDS011;5068;51.286;7.518;2024-01-25T04:31:19;10.32;;;2.75;;
10056;SDS011;5068;51.286;7.518;2024-01-25T04:32:53;11.13;;;2.20;;
10056;SDS011;5068;51.286;7.518;2024-01-25T04:34:25;10.93;;;2.70;;
10056;SDS011;5068;51.286;7.518;2024-01-25T04:35:59;11.00;;;3.08;;
10056;SDS011;5068;51.286;7.518;2024-01-25T04:37:31;17.02;;;3.33;;
10056;SDS011;5068;51.286;7.518;2024-01-25T04:39:05;12.35;;;3.17;;
10056;SDS011;5068;51.286;7.518;2024-01-25T04:40:37;11.02;;;3.38;;
10056;SDS011;5068;51.286;7.518;2024-01-25T04:42:10;13.18;;;3.47;;
10056;SDS011;5068;51.286;7.518;2024-01-25T04:43:44;15.80;;;3.60;;
10056;SDS011;5068;51.286;7.518;2024-01-25T04:45:18;9.88;;;2.53;;
10056;SDS011;5068;51.286;7.518;2024-01-25T04:46:50;11.95;;;3.47;;
10056;SDS011;5068;51.286;7.518;2024-01-25T04:48:25;9.00;;;2.70;;
10056;SDS011;5068;51.286;7.518;2024-01-25T04:49:58;12.52;;;3.58;;
10056;SDS011;5068;51.286;7.518;2024-01-25T04:51:31;9.85;;;2.78;;
10056;SDS011;5068;51.286;7.518;2024-01-25T04:53:04;12.70;;;3.15;;
10056;SDS011;5068;51.286;7.518;2024-01-25T04:54:37;16.20;;;3.08;;
10056;SDS011;5068;51.286;7.518;2024-01-25T04:56:10;10.60;;;2.80;;
10056;SDS011;5068;51.286;7.518;2024-01-25T04:57:42;8.23;;;2.38;;
10056;SDS011;5068;51.286;7.518;2024-01-25T04:59:17;10.07;;;2.92;;
10056;SDS011;5068;51.286;7.518;2024-01-25T05:00:49;11.75;;;3.50;;
10056;SDS011;5068;51.286;7.518;2024-01-25T05:02:24;9.40;;;2.70;;
10056;SDS011;5068;51.286;7.518;2024-01-25T05:03:56;9.27;;;2.80;;
10056;SDS011;5068;51.286;7.518;2024-01-25T05:05:30;12.38;;;3.08;;
10056;SDS011;5068;51.286;7.518;2024-01-25T05:07:02;12.73;;;2.72;;
10056;SDS011;5068;51.286;7.518;2024-01-25T05:08:35;12.38;;;3.65;;
10056;SDS011;5068;51.286;7.518;2024-01-25T05:10:08;11.38;;;2.65;;
10056;SDS011;5068;51.286;7.518;2024-01-25T05:11:42;9.60;;;2.80;;
10056;SDS011;5068;51.286;7.518;2024-01-25T05:13:15;11.70;;;3.10;;
10056;SDS011;5068;51.286;7.518;2024-01-25T05:14:49;9.57;;;2.80;;
10056;SDS011;5068;51.286;7.518;2024-01-25T05:16:21;13.55;;;3.40;;
10056;SDS011;5068;51.286;7.518;2024-01-25T05:17:55;14.00;;;3.58;;
10056;SDS011;5068;51.286;7.518;2024-01-25T05:19:27;8.82;;;3.22;;
10056;SDS011;5068;51.286;7.518;2024-01-25T05:21:00;12.77;;;3.25;;
10056;SDS011;5068;51.286;7.518;2024-01-25T05:22:33;12.38;;;3.70;;
10056;SDS011;5068;51.286;7.518;2024-01-25T05:24:11;10.18;;;2.92;;
10056;SDS011;5068;51.286;7.518;2024-01-25T05:25:44;12.05;;;3.03;;
10056;SDS011;5068;51.286;7.518;2024-01-25T05:27:17;11.75;;;3.35;;
10056;SDS011;5068;51.286;7.518;2024-01-25T05:28:50;10.57;;;3.17;;
10056;SDS011;5068;51.286;7.518;2024-01-25T05:30:24;8.20;;;2.83;;
10056;SDS011;5068;51.286;7.518;2024-01-25T05:31:58;14.60;;;3.58;;
10056;SDS011;5068;51.286;7.518;2024-01-25T05:33:30;10.98;;;3.45;;
10056;SDS011;5068;51.286;7.518;2024-01-25T05:35:04;11.50;;;3.20;;
10056;SDS011;5068;51.286;7.518;2024-01-25T05:36:39;10.23;;;3.35;;
10056;SDS011;5068;51.286;7.518;2024-01-25T05:38:13;8.70;;;2.75;;
10056;SDS011;5068;51.286;7.518;2024-01-25T05:39:46;10.88;;;3.50;;
10056;SDS011;5068;51.286;7.518;2024-01-25T05:41:18;12.57;;;3.63;;
10056;SDS011;5068;51.286;7.518;2024-01-25T05:42:51;12.98;;;3.22;;
10056;SDS011;5068;51.286;7.518;2024-01-25T05:44:24;9.43;;;2.75;;
10056;SDS011;5068;51.286;7.518;2024-01-25T05:45:58;7.45;;;2.80;;
10056;SDS011;5068;51.286;7.518;2024-01-25T05:47:34;6.90;;;2.33;;
10056;SDS011;5068;51.286;7.518;2024-01-25T05:49:07;10.35;;;3.03;;
10056;SDS011;5068;51.286;7.518;2024-01-25T05:50:40;13.82;;;3.20;;
10056;SDS011;5068;51.286;7.518;2024-01-25T05:52:13;10.13;;;2.83;;
10056;SDS011;5068;51.286;7.518;2024-01-25T05:53:45;8.15;;;2.83;;
10056;SDS011;5068;51.286;7.518;2024-01-25T05:55:19;11.38;;;3.17;;
10056;SDS011;5068;51.286;7.518;2024-01-25T05:56:51;9.20;;;3.05;;
10056;SDS011;5068;51.286;7.518;2024-01-25T05:58:24;8.40;;;2.63;;
10056;SDS011;5068;51.286;7.518;2024-01-25T05:59:57;12.88;;;3.38;;
10056;SDS011;5068;51.286;7.518;2024-01-25T06:01:32;12.93;;;3.55;;
10056;SDS011;5068;51.286;7.518;2024-01-25T06:03:04;7.80;;;2.75;;
10056;SDS011;5068;51.286;7.518;2024-01-25T06:04:37;11.98;;;3.85;;
10056;SDS011;5068;51.286;7.518;2024-01-25T06:06:10;9.50;;;4.28;;
10056;SDS011;5068;51.286;7.518;2024-01-25T06:07:44;9.30;;;3.42;;
10056;SDS011;5068;51.286;7.518;2024-01-25T06:09:16;14.02;;;3.70;;
10056;SDS011;5068;51.286;7.518;2024-01-25T06:10:51;12.15;;;3.72;;
10056;SDS011;5068;51.286;7.518;2024-01-25T06:12:24;11.13;;;3.50;;
10056;SDS011;5068;51.286;7.518;2024-01-25T06:13:57;8.15;;;3.03;;
10056;SDS011;5068;51.286;7.518;2024-01-25T06:15:29;9.30;;;2.67;;
10056;SDS011;5068;51.286;7.518;2024-01-25T06:17:05;13.02;;;3.75;;
10056;SDS011;5068;51.286;7.518;2024-01-25T06:18:37;9.30;;;2.70;;
10056;SDS011;5068;51.286;7.518;2024-01-25T06:20:10;9.93;;;3.53;;
10056;SDS011;5068;51.286;7.518;2024-01-25T06:21:43;10.77;;;3.05;;
10056;SDS011;5068;51.286;7.518;2024-01-25T06:23:16;13.15;;;4.00;;
10056;SDS011;5068;51.286;7.518;2024-01-25T06:24:49;12.23;;;3.58;;
10056;SDS011;5068;51.286;7.518;2024-01-25T06:26:22;9.52;;;2.47;;
10056;SDS011;5068;51.286;7.518;2024-01-25T06:27:54;9.85;;;3.20;;
10056;SDS011;5068;51.286;7.518;2024-01-25T06:29:28;8.05;;;3.35;;
10056;SDS011;5068;51.286;7.518;2024-01-25T06:31:00;9.73;;;4.10;;
10056;SDS011;5068;51.286;7.518;2024-01-25T06:32:35;13.95;;;3.63;;
10056;SDS011;5068;51.286;7.518;2024-01-25T06:34:09;8.60;;;3.28;;
10056;SDS011;5068;51.286;7.518;2024-01-25T06:35:42;12.57;;;3.70;;
10056;SDS011;5068;51.286;7.518;2024-01-25T06:37:15;15.07;;;3.33;;
10056;SDS011;5068;51.286;7.518;2024-01-25T06:38:50;12.65;;;3.78;;
10056;SDS011;5068;51.286;7.518;2024-01-25T06:40:22;13.50;;;3.42;;
10056;SDS011;5068;51.286;7.518;2024-01-25T06:41:56;7.78;;;3.65;;
10056;SDS011;5068;51.286;7.518;2024-01-25T06:43:28;10.73;;;3.40;;
10056;SDS011;5068;51.286;7.518;2024-01-25T06:45:01;11.40;;;3.63;;
10056;SDS011;5068;51.286;7.518;2024-01-25T06:46:35;12.25;;;4.10;;
10056;SDS011;5068;51.286;7.518;2024-01-25T06:48:09;13.57;;;3.75;;
10056;SDS011;5068;51.286;7.518;2024-01-25T06:49:42;10.63;;;3.47;;
10056;SDS011;5068;51.286;7.518;2024-01-25T06:51:19;9.30;;;4.00;;
10056;SDS011;5068;51.286;7.518;2024-01-25T06:52:52;12.75;;;3.70;;
10056;SDS011;5068;51.286;7.518;2024-01-25T06:54:26;8.75;;;3.58;;
10056;SDS011;5068;51.286;7.518;2024-01-25T06:55:58;10.07;;;3.45;;
10056;SDS011;5068;51.286;7.518;2024-01-25T06:57:32;12.43;;;3.53;;
10056;SDS011;5068;51.286;7.518;2024-01-25T06:59:04;12.02;;;3.42;;
10056;SDS011;5068;51.286;7.518;2024-01-25T07:00:37;9.73;;;3.45;;
10056;SDS011;5068;51.286;7.518;2024-01-25T07:02:10;10.75;;;3.40;;
10056;SDS011;5068;51.286;7.518;2024-01-25T07:03:46;8.68;;;3.65;;
10056;SDS011;5068;51.286;7.518;2024-01-25T07:05:20;10.82;;;3.53;;
10056;SDS011;5068;51.286;7.518;2024-01-25T07:06:54;14.07;;;3.53;;
10056;SDS011;5068;51.286;7.518;2024-01-25T07:08:26;9.38;;;4.30;;
10056;SDS011;5068;51.286;7.518;2024-01-25T07:10:00;11.43;;;4.65;;
10056;SDS011;5068;51.286;7.518;2024-01-25T07:11:32;11.07;;;3.55;;
10056;SDS011;5068;51.286;7.518;2024-01-25T07:13:06;8.80;;;3.63;;
10056;SDS011;5068;51.286;7.518;2024-01-25T07:14:38;9.48;;;3.80;;
10056;SDS011;5068;51.286;7.518;2024-01-25T07:16:11;8.27;;;3.45;;
10056;SDS011;5068;51.286;7.518;2024-01-25T07:17:44;12.02;;;3.80;;
10056;SDS011;5068;51.286;7.518;2024-01-25T07:19:18;10.25;;;4.00;;
10056;SDS011;5068;51.286;7.518;2024-01-25T07:20:51;10.68;;;3.60;;
10056;SDS011;5068;51.286;7.518;2024-01-25T07:22:24;11.48;;;4.15;;
10056;SDS011;5068;51.286;7.518;2024-01-25T07:23:56;10.43;;;3.60;;
10056;SDS011;5068;51.286;7.518;2024-01-25T07:25:30;9.65;;;3.28;;
10056;SDS011;5068;51.286;7.518;2024-01-25T07:27:03;11.60;;;4.10;;
10056;SDS011;5068;51.286;7.518;2024-01-25T07:28:37;14.38;;;4.00;;
10056;SDS011;5068;51.286;7.518;2024-01-25T07:30:09;13.38;;;4.40;;
10056;SDS011;5068;51.286;7.518;2024-01-25T07:31:44;13.30;;;4.38;;
10056;SDS011;5068;51.286;7.518;2024-01-25T07:33:16;9.30;;;3.45;;
10056;SDS011;5068;51.286;7.518;2024-01-25T07:34:51;9.63;;;4.10;;
10056;SDS011;5068;51.286;7.518;2024-01-25T07:36:24;12.68;;;4.20;;
10056;SDS011;5068;51.286;7.518;2024-01-25T07:37:58;13.00;;;4.45;;
10056;SDS011;5068;51.286;7.518;2024-01-25T07:39:30;14.38;;;4.40;;
10056;SDS011;5068;51.286;7.518;2024-01-25T07:41:03;15.40;;;5.35;;
10056;SDS011;5068;51.286;7.518;2024-01-25T07:42:37;14.20;;;5.57;;
10056;SDS011;5068;51.286;7.518;2024-01-25T07:44:09;14.15;;;5.45;;
10056;SDS011;5068;51.286;7.518;2024-01-25T07:45:44;16.00;;;5.30;;
10056;SDS011;5068;51.286;7.518;2024-01-25T07:47:17;17.35;;;6.13;;
10056;SDS011;5068;51.286;7.518;2024-01-25T07:48:50;14.95;;;5.25;;
10056;SDS011;5068;51.286;7.518;2024-01-25T07:50:24;13.32;;;4.75;;
10056;SDS011;5068;51.286;7.518;2024-01-25T07:51:58;10.85;;;4.93;;
10056;SDS011;5068;51.286;7.518;2024-01-25T07:53:30;18.50;;;5.13;;
10056;SDS011;5068;51.286;7.518;2024-01-25T07:55:04;18.67;;;5.57;;
10056;SDS011;5068;51.286;7.518;2024-01-25T07:56:37;13.80;;;5.07;;
10056;SDS011;5068;51.286;7.518;2024-01-25T07:58:10;14.73;;;4.85;;
10056;SDS011;5068;51.286;7.518;2024-01-25T07:59:43;14.82;;;5.57;;
10056;SDS011;5068;51.286;7.518;2024-01-25T08:01:17;14.07;;;4.88;;
10056;SDS011;5068;51.286;7.518;2024-01-25T08:02:50;15.27;;;5.32;;
10056;SDS011;5068;51.286;7.518;2024-01-25T08:04:23;15.38;;;5.63;;
10056;SDS011;5068;51.286;7.518;2024-01-25T08:05:58;13.02;;;4.35;;
10056;SDS011;5068;51.286;7.518;2024-01-25T08:07:30;15.95;;;5.40;;
10056;SDS011;5068;51.286;7.518;2024-01-25T08:09:04;13.60;;;5.05;;
10056;SDS011;5068;51.286;7.518;2024-01-25T08:10:37;14.20;;;5.10;;
10056;SDS011;5068;51.286;7.518;2024-01-25T08:12:10;16.63;;;5.45;;
10056;SDS011;5068;51.286;7.518;2024-01-25T08:13:42;15.73;;;5.63;;
10056;SDS011;5068;51.286;7.518;2024-01-25T08:15:16;12.50;;;4.75;;
10056;SDS011;5068;51.286;7.518;2024-01-25T08:16:48;13.27;;;4.78;;
10056;SDS011;5068;51.286;7.518;2024-01-25T08:18:21;13.77;;;5.00;;
10056;SDS011;5068;51.286;7.518;2024-01-25T08:19:54;14.77;;;5.47;;
10056;SDS011;5068;51.286;7.518;2024-01-25T08:21:29;17.58;;;5.82;;
10056;SDS011;5068;51.286;7.518;2024-01-25T08:23:20;11.50;;;4.43;;
10056;SDS011;5068;51.286;7.518;2024-01-25T08:24:52;19.23;;;6.38;;
10056;SDS011;5068;51.286;7.518;2024-01-25T08:26:25;16.65;;;5.90;;
10056;SDS011;5068;51.286;7.518;2024-01-25T08:27:59;14.43;;;5.93;;
10056;SDS011;5068;51.286;7.518;2024-01-25T08:29:31;19.73;;;6.75;;
10056;SDS011;5068;51.286;7.518;2024-01-25T08:31:05;17.05;;;6.85;;
10056;SDS011;5068;51.286;7.518;2024-01-25T08:32:37;20.30;;;7.07;;
10056;SDS011;5068;51.286;7.518;2024-01-25T08:34:11;16.77;;;6.20;;
10056;SDS011;5068;51.286;7.518;2024-01-25T08:35:43;20.35;;;7.10;;
10056;SDS011;5068;51.286;7.518;2024-01-25T08:37:18;18.35;;;6.70;;
10056;SDS011;5068;51.286;7.518;2024-01-25T08:38:51;17.58;;;7.07;;
10056;SDS011;5068;51.286;7.518;2024-01-25T08:40:24;19.85;;;7.25;;
10056;SDS011;5068;51.286;7.518;2024-01-25T08:41:59;15.43;;;6.35;;
10056;SDS011;5068;51.286;7.518;2024-01-25T08:43:53;16.65;;;6.72;;
10056;SDS011;5068;51.286;7.518;2024-01-25T08:45:45;16.38;;;6.72;;
10056;SDS011;5068;51.286;7.518;2024-01-25T08:47:18;16.75;;;7.07;;
10056;SDS011;5068;51.286;7.518;2024-01-25T08:50:28;12.65;;;5.45;;
10056;SDS011;5068;51.286;7.518;2024-01-25T08:52:02;17.45;;;5.93;;
10056;SDS011;5068;51.286;7.518;2024-01-25T08:53:38;15.52;;;6.50;;
10056;SDS011;5068;51.286;7.518;2024-01-25T08:55:13;18.58;;;7.05;;
10056;SDS011;5068;51.286;7.518;2024-01-25T08:56:45;13.85;;;5.38;;
10056;SDS011;5068;51.286;7.518;2024-01-25T08:58:18;15.80;;;5.63;;
10056;SDS011;5068;51.286;7.518;2024-01-25T08:59:51;18.15;;;6.20;;
10056;SDS011;5068;51.286;7.518;2024-01-25T09:01:26;14.35;;;5.55;;
10056;SDS011;5068;51.286;7.518;2024-01-25T09:02:58;18.90;;;6.53;;
10056;SDS011;5068;51.286;7.518;2024-01-25T09:04:32;17.73;;;6.57;;
10056;SDS011;5068;51.286;7.518;2024-01-25T09:06:04;14.90;;;5.72;;
10056;SDS011;5068;51.286;7.518;2024-01-25T09:07:38;15.80;;;5.75;;
10056;SDS011;5068;51.286;7.518;2024-01-25T09:09:12;18.52;;;5.38;;
10056;SDS011;5068;51.286;7.518;2024-01-25T09:10:45;13.60;;;5.68;;
10056;SDS011;5068;51.286;7.518;2024-01-25T09:12:17;16.15;;;6.07;;
10056;SDS011;5068;51.286;7.518;2024-01-25T09:13:51;19.85;;;6.35;;
10056;SDS011;5068;51.286;7.518;2024-01-25T09:15:23;13.98;;;5.65;;
10056;SDS011;5068;51.286;7.518;2024-01-25T09:16:56;15.57;;;5.07;;
10056;SDS011;5068;51.286;7.518;2024-01-25T09:18:29;16.10;;;6.20;;
10056;SDS011;5068;51.286;7.518;2024-01-25T09:20:06;16.52;;;5.97;;
10056;SDS011;5068;51.286;7.518;2024-01-25T09:21:40;18.25;;;5.30;;
10056;SDS011;5068;51.286;7.518;2024-01-25T09:23:14;18.63;;;5.95;;
10056;SDS011;5068;51.286;7.518;2024-01-25T09:24:50;17.25;;;5.72;;
10056;SDS011;5068;51.286;7.518;2024-01-25T09:26:22;13.27;;;5.53;;
10056;SDS011;5068;51.286;7.518;2024-01-25T09:27:55;15.55;;;5.60;;